Peshastin, WA (98847)

10:13 AM PST on November 22, 2014 (GMT -0800)
MesoWest Dryden Road WA US WA DOT | Change Station
CLOSE
Current Station
Personal Weather Station
Location: Peshastin, WA
Elevation: 1056 ft
Nearby Weather Stations

Elev 1056 ft 47.56 °N, 120.59 °W | Updated 58 minutes ago

Clear
Clear
35 °F
Feels Like 35 °F
N
1
Wind Variable Wind from NNW
Gusts 6.0 mph

Today
High -- | Low -- °F
--% Chance of Precip.
Yesterday
High -- | Low -- °F
Precip. -- in
7:17 AM 4:19 PM
New Moon, 0% visible
Pressure 29.72 in
Visibility 10.0 miles
Clouds Few 12000 ft
Windchill 35 °F
Dew Point 32 °F
Humidity 89%
Rainfall -999.00 in
Snow Depth Not available.
UV out of 12
Pollen .10 out of 12
Air Quality Not available.
Flu Activity Not available.
METAR KEAT 221755Z AUTO 26003KT 10SM FEW120 02/M01 A2969 RMK AO2 SLP064 60000 T00221011 10044 21006 53029

More Conditions Fewer Conditions

Pressure 29.72 in
Visibility 10.0 miles
Clouds Few 12000 ft
Windchill 35 °F
Dew Point 32 °F
Humidity 89%
Rainfall -999.00 in
Snow Depth Not available.
UV out of 12
Pollen .10 out of 12
Air Quality Not available.
Flu Activity Not available.
METAR KEAT 221755Z AUTO 26003KT 10SM FEW120 02/M01 A2969 RMK AO2 SLP064 60000 T00221011 10044 21006 53029

More Conditions Fewer Conditions

10-Day Weather Forecast

Almanac

Astronomy

Nov. 22, 2014 Rise Set
Actual Time
Civil Twilight
Nautical Twilight
Astronomical Twilight
Moon
Length of Visible Light
Length of Day
Tomorrow will be .
, % of the Moon is Illuminated

Today's Extremes

State Highs State Lows

Community

WunderPhotos

Upload Photos

1,772,873 photos uploaded!

WunderBlogs® & News

Nearby

Air Quality

  Air Quality AQ Index Pollutant
Not available.

Snow Depth

Station Depth Elevation

Earthquake Activity

City Distance Mag. Time & Date
Minimum magnitude displayed is 2.5.

Coastal Water Temperatures

Place Temperature

Nearby Weather Stations